createdAt,value
2022-12-18T00:01:53.523Z,-10.2
2022-12-18T00:07:17.109Z,-10.1
2022-12-18T00:12:40.682Z,-10.4
2022-12-18T00:18:04.258Z,-10.3
2022-12-18T00:23:26.874Z,-10.2
2022-12-18T00:28:49.467Z,-9.9
2022-12-18T00:34:13.047Z,-10.2
2022-12-18T00:39:36.626Z,-10.2
2022-12-18T00:45:00.194Z,-10
2022-12-18T00:50:23.778Z,-10.2
2022-12-18T00:55:47.357Z,-10.5
2022-12-18T01:01:10.937Z,-10.5
2022-12-18T01:06:34.511Z,-10.7
2022-12-18T01:11:58.093Z,-10.7
2022-12-18T01:17:21.676Z,-10.8
2022-12-18T01:22:45.250Z,-10.5
2022-12-18T01:28:08.839Z,-10.5
2022-12-18T01:33:32.407Z,-10.6
2022-12-18T01:38:55.006Z,-10.6
2022-12-18T01:44:18.585Z,-10.5
2022-12-18T01:49:42.161Z,-10.3
2022-12-18T01:55:05.744Z,-10.2
2022-12-18T02:00:29.341Z,-10.1
2022-12-18T02:05:52.902Z,-10.1
2022-12-18T02:11:16.494Z,-10
2022-12-18T02:16:39.096Z,-9.9
2022-12-18T02:22:01.682Z,-10.1
2022-12-18T02:27:24.283Z,-9.9
2022-12-18T02:32:46.872Z,-9.9
2022-12-18T02:38:09.479Z,-9.9
2022-12-18T02:43:32.085Z,-10.1
2022-12-18T02:48:55.659Z,-10.2
2022-12-18T02:54:19.243Z,-10.1
2022-12-18T02:59:42.810Z,-10
2022-12-18T03:05:06.393Z,-10.4
2022-12-18T03:10:29.977Z,-10.4
2022-12-18T03:15:53.549Z,-10.6
2022-12-18T03:21:17.142Z,-10.7
2022-12-18T03:26:40.725Z,-10.6
2022-12-18T03:32:04.304Z,-10.5
2022-12-18T03:37:27.877Z,-10.7
2022-12-18T03:42:51.452Z,-10.6
2022-12-18T03:48:15.020Z,-10.4
2022-12-18T03:53:37.629Z,-10.5
2022-12-18T03:59:01.198Z,-10.5
2022-12-18T04:04:24.784Z,-10.6
2022-12-18T04:09:48.358Z,-10.4
2022-12-18T04:15:11.943Z,-10.9
2022-12-18T04:25:59.108Z,-10.9
2022-12-18T04:31:22.696Z,-11
2022-12-18T04:36:45.296Z,-11.1
2022-12-18T04:42:07.887Z,-11.3
2022-12-18T04:47:30.486Z,-11.3
2022-12-18T04:52:53.074Z,-11.1
2022-12-18T04:58:16.669Z,-11.1
2022-12-18T05:03:40.245Z,-11.1
2022-12-18T05:09:03.834Z,-11.1
2022-12-18T05:14:27.414Z,-11.2
2022-12-18T05:19:50.987Z,-11
2022-12-18T05:25:14.575Z,-11.1
2022-12-18T05:30:38.157Z,-11.3
2022-12-18T05:36:01.736Z,-11.2
2022-12-18T05:41:25.315Z,-11.3
2022-12-18T05:46:48.894Z,-11.2
2022-12-18T05:52:12.458Z,-11.1
2022-12-18T05:57:36.041Z,-11.4
2022-12-18T06:02:58.643Z,-11.2
2022-12-18T06:08:22.230Z,-11.3
2022-12-18T06:13:45.812Z,-11.4
2022-12-18T06:19:09.399Z,-11.5
2022-12-18T06:24:32.958Z,-11.4
2022-12-18T06:29:56.548Z,-11.6
2022-12-18T06:35:20.126Z,-11.3
2022-12-18T06:40:42.698Z,-11.5
2022-12-18T06:46:05.287Z,-11.4
2022-12-18T06:51:28.830Z,-11.5
2022-12-18T06:56:52.364Z,-11.5
2022-12-18T07:02:15.901Z,-11.4
2022-12-18T07:07:39.447Z,-11.3
2022-12-18T07:13:02.982Z,-11.4
2022-12-18T07:18:26.519Z,-11.3
2022-12-18T07:23:50.057Z,-11.4
2022-12-18T07:29:13.597Z,-11.4
2022-12-18T07:34:37.114Z,-11.4
2022-12-18T07:40:00.664Z,-11.5
2022-12-18T07:45:24.191Z,-11.4
2022-12-18T07:50:47.732Z,-11.3
2022-12-18T07:56:10.291Z,-11.4
2022-12-18T08:01:33.833Z,-11
2022-12-18T08:06:57.368Z,-10.8
2022-12-18T08:12:20.896Z,-11
2022-12-18T08:17:44.450Z,-10.8
2022-12-18T08:23:07.973Z,-10.7
2022-12-18T08:28:31.507Z,-10.5
2022-12-18T08:33:54.000Z,-10.3
2022-12-18T08:39:16.631Z,-10.1
2022-12-18T08:44:39.178Z,-9.9
2022-12-18T08:50:01.738Z,-9.7
2022-12-18T08:55:25.264Z,-9.7
2022-12-18T09:00:48.804Z,-9.2
2022-12-18T09:06:12.340Z,-9.3
2022-12-18T09:11:35.888Z,-8.9
2022-12-18T09:16:59.422Z,-8.8
2022-12-18T09:22:22.957Z,-8.8
2022-12-18T09:27:46.479Z,-8.4
2022-12-18T09:33:10.027Z,-8.3
2022-12-18T09:38:33.560Z,-8.2
2022-12-18T09:43:57.101Z,-8
2022-12-18T09:49:20.624Z,-7.9
2022-12-18T09:54:44.168Z,-7.7
2022-12-18T10:00:06.713Z,-7.5
2022-12-18T10:05:30.246Z,-7.6
2022-12-18T10:10:53.780Z,-7.4
2022-12-18T10:16:17.334Z,-7.1
2022-12-18T10:21:40.868Z,-7
2022-12-18T10:27:04.399Z,-6.9
2022-12-18T10:32:27.936Z,-6.7
2022-12-18T10:37:50.490Z,-6.6
2022-12-18T10:43:13.043Z,-6.4
2022-12-18T10:48:36.574Z,-6.2
2022-12-18T10:54:00.103Z,-6.2
2022-12-18T10:59:23.648Z,-5.4
2022-12-18T11:04:47.164Z,-4.3
2022-12-18T11:10:10.715Z,-3.2
2022-12-18T11:15:34.236Z,-2.6
2022-12-18T11:20:57.775Z,-2.7
2022-12-18T11:26:21.303Z,-2.8
2022-12-18T11:31:44.840Z,-3.2
2022-12-18T11:37:08.371Z,-3.6
2022-12-18T11:42:31.918Z,-3.9
2022-12-18T11:47:55.450Z,-4.1
2022-12-18T11:53:17.985Z,-4.2
2022-12-18T11:58:41.524Z,-4
2022-12-18T12:04:05.062Z,-4
2022-12-18T12:09:28.583Z,-3.8
2022-12-18T12:14:52.104Z,-3.6
2022-12-18T12:20:15.634Z,-3.4
2022-12-18T12:31:02.708Z,-3.5
2022-12-18T12:36:25.259Z,-3.5
2022-12-18T12:41:47.822Z,-3.8
2022-12-18T12:47:10.364Z,-3.9
2022-12-18T12:52:32.922Z,-3.8
2022-12-18T12:57:56.456Z,-3.8
2022-12-18T13:03:19.988Z,-3.9
2022-12-18T13:08:43.518Z,-4
2022-12-18T13:14:07.046Z,-3.9
2022-12-18T13:19:30.587Z,-4
2022-12-18T13:24:54.119Z,-4.1
2022-12-18T13:30:17.651Z,-4.1
2022-12-18T13:35:41.184Z,-4.1
2022-12-18T13:41:04.730Z,-4.2
2022-12-18T13:46:28.245Z,-4.4
2022-12-18T13:51:51.780Z,-4.3
2022-12-18T13:57:15.323Z,-4.5
2022-12-18T14:02:37.875Z,-4.6
2022-12-18T14:08:01.418Z,-4.6
2022-12-18T14:13:24.943Z,-4.7
2022-12-18T14:18:48.469Z,-4.7
2022-12-18T14:24:12.005Z,-4.9
2022-12-18T14:29:35.556Z,-5.1
2022-12-18T14:34:59.080Z,-5.2
2022-12-18T14:40:21.640Z,-5.3
2022-12-18T14:45:44.173Z,-5.4
2022-12-18T14:51:06.743Z,-5.5
2022-12-18T14:56:29.294Z,-5.8
2022-12-18T15:01:51.840Z,-5.8
2022-12-18T15:07:14.393Z,-6
2022-12-18T15:12:36.963Z,-6.2
2022-12-18T15:17:59.498Z,-6
2022-12-18T15:23:23.047Z,-6.2
2022-12-18T15:28:46.620Z,-6.2
2022-12-18T15:34:10.191Z,-6.5
2022-12-18T15:39:33.761Z,-6.6
2022-12-18T15:44:57.360Z,-6.4
2022-12-18T15:50:20.934Z,-6.5
2022-12-18T15:55:44.496Z,-6.4
2022-12-18T16:01:08.092Z,-6.5
2022-12-18T16:06:31.662Z,-6.5
2022-12-18T16:11:55.250Z,-6.4
2022-12-18T16:17:18.821Z,-6.5
2022-12-18T16:28:05.975Z,-6.5
2022-12-18T16:33:28.565Z,-6.4
2022-12-18T16:38:52.140Z,-6.6
2022-12-18T16:44:15.724Z,-6.8
2022-12-18T16:49:39.293Z,-6.7
2022-12-18T16:55:02.859Z,-6.7
2022-12-18T17:00:26.452Z,-6.7
2022-12-18T17:05:50.019Z,-6.7
2022-12-18T17:11:12.631Z,-6.6
2022-12-18T17:16:35.209Z,-6.8
2022-12-18T17:21:58.782Z,-6.7
2022-12-18T17:27:21.401Z,-6.6
2022-12-18T17:32:44.984Z,-6.2
2022-12-18T17:43:31.156Z,-5.7
2022-12-18T17:48:54.726Z,-5.3
2022-12-18T17:54:18.322Z,-5.2
2022-12-18T17:59:41.884Z,-5
2022-12-18T18:10:29.016Z,-4.6
2022-12-18T18:21:16.171Z,-4.7
2022-12-18T18:26:39.748Z,-4.5
2022-12-18T18:32:03.322Z,-4.5
2022-12-18T18:37:26.640Z,-4.5
2022-12-18T18:42:50.502Z,-4.3
2022-12-18T18:48:13.103Z,-4.2
2022-12-18T18:53:35.687Z,-4
2022-12-18T18:58:59.265Z,-4.1
2022-12-18T19:04:22.848Z,-4
2022-12-18T19:09:46.419Z,-3.9
2022-12-18T19:15:10.006Z,-3.9
2022-12-18T19:20:33.571Z,-4
2022-12-18T19:25:57.170Z,-3.9
2022-12-18T19:31:20.735Z,-4.1
2022-12-18T19:36:44.320Z,-3.8
2022-12-18T19:42:07.899Z,-3.8
2022-12-18T19:47:30.484Z,-3.7
2022-12-18T19:52:53.082Z,-3.8
2022-12-18T19:58:16.659Z,-3.7
2022-12-18T20:03:40.238Z,-3.6
2022-12-18T20:09:03.813Z,-3.5
2022-12-18T20:14:27.390Z,-3.5
2022-12-18T20:19:50.953Z,-3.3
2022-12-18T20:25:14.528Z,-3.3
2022-12-18T20:30:38.117Z,-3.3
2022-12-18T20:36:01.703Z,-3.5
2022-12-18T20:41:25.270Z,-3.3
2022-12-18T20:46:48.836Z,-3.3
2022-12-18T20:52:12.419Z,-3.3
2022-12-18T20:57:36.000Z,-3.5
2022-12-18T21:02:58.596Z,-3.5
2022-12-18T21:08:22.158Z,-3.6
2022-12-18T21:13:45.743Z,-3.7
2022-12-18T21:19:09.313Z,-3.8
2022-12-18T21:24:32.890Z,-4
2022-12-18T21:29:56.476Z,-4
2022-12-18T21:35:20.044Z,-4
2022-12-18T21:40:42.640Z,-4.1
2022-12-18T21:46:05.238Z,-4.1
2022-12-18T21:51:28.798Z,-4
2022-12-18T21:56:51.401Z,-4.2
2022-12-18T22:02:13.990Z,-4.1
2022-12-18T22:07:37.574Z,-4.2
2022-12-18T22:13:01.156Z,-4.2
2022-12-18T22:18:24.726Z,-4.2
2022-12-18T22:23:48.297Z,-4.2
2022-12-18T22:29:11.885Z,-4.1
2022-12-18T22:34:35.460Z,-4
2022-12-18T22:39:59.032Z,-4
2022-12-18T22:45:22.606Z,-4.1
2022-12-18T22:50:46.190Z,-4.2
2022-12-18T22:56:09.765Z,-4.1
2022-12-18T23:01:33.340Z,-4.1
2022-12-18T23:06:56.908Z,-4.1
2022-12-18T23:12:19.508Z,-4.2
2022-12-18T23:17:43.074Z,-4.2
2022-12-18T23:23:06.670Z,-4
2022-12-18T23:28:30.234Z,-4.2
2022-12-18T23:33:53.803Z,-4.3
2022-12-18T23:39:17.384Z,-4.1
2022-12-18T23:44:40.968Z,-4.3
2022-12-18T23:50:03.563Z,-4.3
2022-12-18T23:55:26.161Z,-4.2
